createdAt,value
2023-03-05T00:00:35.275Z,1007.8
2023-03-05T00:01:39.737Z,1007.8
2023-03-05T00:02:57.827Z,1007.8
2023-03-05T00:04:00.662Z,1007.8
2023-03-05T00:05:03.451Z,1007.8
2023-03-05T00:06:06.879Z,1007.7
2023-03-05T00:07:09.422Z,1007.7
2023-03-05T00:08:12.188Z,1007.7
2023-03-05T00:09:15.965Z,1007.7
2023-03-05T00:10:19.970Z,1007.7
2023-03-05T00:11:38.292Z,1007.7
2023-03-05T00:12:40.897Z,1007.6
2023-03-05T00:13:44.152Z,1007.6
2023-03-05T00:16:05.277Z,1007.7
2023-03-05T00:17:24.670Z,1007.6
2023-03-05T00:19:47.010Z,1007.5
2023-03-05T00:20:50.100Z,1007.6
2023-03-05T00:21:52.986Z,1007.5
2023-03-05T00:22:55.143Z,1007.5
2023-03-05T00:23:58.157Z,1007.5
2023-03-05T00:25:02.014Z,1007.5
2023-03-05T00:26:04.832Z,1007.5
2023-03-05T00:27:22.550Z,1007.5
2023-03-05T00:28:26.017Z,1007.4
2023-03-05T00:29:32.104Z,1007.5
2023-03-05T00:30:35.888Z,1007.4
2023-03-05T00:31:39.344Z,1007.4
2023-03-05T00:32:42.331Z,1007.4
2023-03-05T00:33:45.595Z,1007.4
2023-03-05T00:35:03.924Z,1007.4
2023-03-05T00:36:06.686Z,1007.4
2023-03-05T00:37:11.824Z,1007.4
2023-03-05T00:38:14.624Z,1007.3
2023-03-05T00:39:17.068Z,1007.4
2023-03-05T00:40:35.966Z,1007.3
2023-03-05T00:41:40.845Z,1007.3
2023-03-05T00:42:43.613Z,1007.3
2023-03-05T00:43:47.162Z,1007.3
2023-03-05T00:44:50.064Z,1007.3
2023-03-05T00:45:53.693Z,1007.3
2023-03-05T00:46:57.399Z,1007.3
2023-03-05T00:48:00.456Z,1007.3
2023-03-05T00:49:03.492Z,1007.3
2023-03-05T00:50:06.925Z,1007.3
2023-03-05T00:51:10.108Z,1007.3
2023-03-05T00:52:12.940Z,1007.3
2023-03-05T00:53:16.583Z,1007.3
2023-03-05T00:54:19.364Z,1007.3
2023-03-05T00:55:22.807Z,1007.2
2023-03-05T00:56:26.489Z,1007.3
2023-03-05T00:57:29.887Z,1007.2
2023-03-05T00:58:32.597Z,1007.2
2023-03-05T00:59:35.681Z,1007.2
2023-03-05T01:00:38.792Z,1007.2
2023-03-05T01:01:41.655Z,1007.2
2023-03-05T01:02:46.097Z,1007.1
2023-03-05T01:03:49.171Z,1007.2
2023-03-05T01:04:52.071Z,1007.2
2023-03-05T01:05:56.016Z,1007.2
2023-03-05T01:06:59.096Z,1007.1
2023-03-05T01:08:02.190Z,1007.2
2023-03-05T01:09:05.640Z,1007.1
2023-03-05T01:10:09.389Z,1007.1
2023-03-05T01:11:12.192Z,1007.1
2023-03-05T01:12:15.086Z,1007
2023-03-05T01:13:18.177Z,1007
2023-03-05T01:14:20.976Z,1007.1
2023-03-05T01:15:24.522Z,1007
2023-03-05T01:16:27.913Z,1007
2023-03-05T01:17:30.661Z,1006.9
2023-03-05T01:18:34.776Z,1007
2023-03-05T01:19:37.299Z,1007
2023-03-05T01:20:40.748Z,1006.9
2023-03-05T01:21:42.705Z,1006.8
2023-03-05T01:22:45.934Z,1006.8
2023-03-05T01:23:49.657Z,1006.8
2023-03-05T01:24:52.840Z,1006.8
2023-03-05T01:25:55.650Z,1006.8
2023-03-05T01:26:59.728Z,1006.8
2023-03-05T01:28:02.651Z,1006.7
2023-03-05T01:29:05.537Z,1006.8
2023-03-05T01:30:09.155Z,1006.8
2023-03-05T01:31:12.006Z,1006.8
2023-03-05T01:32:15.150Z,1006.8
2023-03-05T01:33:18.499Z,1006.8
2023-03-05T01:34:22.403Z,1006.8
2023-03-05T01:35:25.944Z,1006.9
2023-03-05T01:36:29.621Z,1006.9
2023-03-05T01:37:32.344Z,1006.9
2023-03-05T01:38:36.002Z,1006.9
2023-03-05T01:39:38.716Z,1006.8
2023-03-05T01:40:41.527Z,1006.8
2023-03-05T01:41:44.034Z,1006.9
2023-03-05T01:42:47.838Z,1006.8
2023-03-05T01:43:50.718Z,1006.8
2023-03-05T01:44:54.066Z,1006.8
2023-03-05T01:45:57.943Z,1006.8
2023-03-05T01:47:01.851Z,1006.8
2023-03-05T01:48:04.579Z,1006.8
2023-03-05T01:49:07.946Z,1006.7
2023-03-05T01:50:11.794Z,1006.7
2023-03-05T01:51:15.159Z,1006.7
2023-03-05T01:52:18.733Z,1006.7
2023-03-05T01:53:21.884Z,1006.7
2023-03-05T01:54:24.932Z,1006.7
2023-03-05T01:55:28.377Z,1006.7
2023-03-05T01:56:31.133Z,1006.7
2023-03-05T01:57:34.306Z,1006.7
2023-03-05T01:58:37.949Z,1006.8
2023-03-05T01:59:40.384Z,1006.7
2023-03-05T02:00:43.841Z,1006.6
2023-03-05T02:01:47.445Z,1006.7
2023-03-05T02:02:50.801Z,1006.6
2023-03-05T02:03:53.619Z,1006.8
2023-03-05T02:04:57.224Z,1006.7
2023-03-05T02:06:00.786Z,1006.6
2023-03-05T02:07:04.275Z,1006.6
2023-03-05T02:08:07.677Z,1006.6
2023-03-05T02:09:10.525Z,1006.5
2023-03-05T02:10:13.593Z,1006.5
2023-03-05T02:11:16.899Z,1006.6
2023-03-05T02:12:20.322Z,1006.6
2023-03-05T02:13:23.320Z,1006.5
2023-03-05T02:14:26.487Z,1006.5
2023-03-05T02:15:29.715Z,1006.5
2023-03-05T02:16:33.017Z,1006.5
2023-03-05T02:17:37.081Z,1006.4
2023-03-05T02:18:40.448Z,1006.5
2023-03-05T02:19:42.671Z,1006.4
2023-03-05T02:20:46.043Z,1006.4
2023-03-05T02:21:50.197Z,1006.4
2023-03-05T02:22:53.943Z,1006.4
2023-03-05T02:23:57.244Z,1006.4
2023-03-05T02:25:00.003Z,1006.5
2023-03-05T02:26:02.838Z,1006.5
2023-03-05T02:27:05.385Z,1006.4
2023-03-05T02:28:08.583Z,1006.4
2023-03-05T02:29:10.790Z,1006.4
2023-03-05T02:30:14.578Z,1006.3
2023-03-05T02:31:17.564Z,1006.3
2023-03-05T02:32:21.682Z,1006.3
2023-03-05T02:33:25.327Z,1006.3
2023-03-05T02:34:28.653Z,1006.3
2023-03-05T02:35:31.617Z,1006.2
2023-03-05T02:36:35.303Z,1006.2
2023-03-05T02:37:38.873Z,1006.3
2023-03-05T02:38:42.622Z,1006.3
2023-03-05T02:39:45.744Z,1006.2
2023-03-05T02:40:48.168Z,1006.2
2023-03-05T02:41:51.590Z,1006.2
2023-03-05T02:42:54.020Z,1006.2
2023-03-05T02:43:57.274Z,1006.2
2023-03-05T02:45:01.287Z,1006.3
2023-03-05T02:46:04.112Z,1006.3
2023-03-05T02:47:07.728Z,1006.3
2023-03-05T02:48:10.230Z,1006.3
2023-03-05T02:49:14.283Z,1006.2
2023-03-05T02:50:17.423Z,1006.3
2023-03-05T02:51:20.799Z,1006.2
2023-03-05T02:52:24.523Z,1006.2
2023-03-05T02:53:28.496Z,1006.2
2023-03-05T02:54:31.926Z,1006.2
2023-03-05T02:55:35.515Z,1006.2
2023-03-05T02:56:38.980Z,1006.2
2023-03-05T02:57:42.540Z,1006.2
2023-03-05T02:58:45.313Z,1006.2
2023-03-05T02:59:48.922Z,1006.2
2023-03-05T03:00:52.324Z,1006.2
2023-03-05T03:01:56.235Z,1006.1
2023-03-05T03:02:59.810Z,1006.2
2023-03-05T03:04:03.475Z,1006.2
2023-03-05T03:05:06.777Z,1006.2
2023-03-05T03:06:09.786Z,1006.2
2023-03-05T03:07:12.590Z,1006.2
2023-03-05T03:08:15.384Z,1006.1
2023-03-05T03:09:18.945Z,1006.1
2023-03-05T03:10:22.402Z,1006.2
2023-03-05T03:11:25.521Z,1006.1
2023-03-05T03:12:28.636Z,1006.1
2023-03-05T03:13:31.732Z,1006.2
2023-03-05T03:14:35.140Z,1006.1
2023-03-05T03:15:38.201Z,1006.1
2023-03-05T03:16:41.573Z,1006.1
2023-03-05T03:17:44.530Z,1006.1
2023-03-05T03:18:47.852Z,1006.1
2023-03-05T03:19:51.779Z,1006.1
2023-03-05T03:20:53.945Z,1006.1
2023-03-05T03:21:56.504Z,1006.1
2023-03-05T03:22:59.664Z,1006
2023-03-05T03:24:03.389Z,1006
2023-03-05T03:25:07.563Z,1006
2023-03-05T03:26:10.902Z,1006
2023-03-05T03:27:13.724Z,1006
2023-03-05T03:28:17.143Z,1006
2023-03-05T03:29:20.213Z,1006
2023-03-05T03:30:23.045Z,1006
2023-03-05T03:31:26.120Z,1005.9
2023-03-05T03:32:29.713Z,1005.9
2023-03-05T03:33:32.777Z,1005.9
2023-03-05T03:34:36.514Z,1005.9
2023-03-05T03:35:38.791Z,1005.9
2023-03-05T03:36:42.247Z,1005.9
2023-03-05T03:37:44.938Z,1005.9
2023-03-05T03:38:47.640Z,1005.9
2023-03-05T03:39:50.692Z,1005.9
2023-03-05T03:40:54.262Z,1005.8
2023-03-05T03:41:58.301Z,1005.9
2023-03-05T03:43:01.191Z,1005.9
2023-03-05T03:44:04.356Z,1005.9
2023-03-05T03:45:08.135Z,1005.8
2023-03-05T03:46:11.184Z,1005.9
2023-03-05T03:47:14.324Z,1005.9
2023-03-05T03:48:16.758Z,1005.8
2023-03-05T03:49:20.160Z,1005.8
2023-03-05T03:50:23.880Z,1005.9
2023-03-05T03:51:26.862Z,1005.8
2023-03-05T03:52:30.584Z,1005.8
2023-03-05T03:53:34.130Z,1005.8
2023-03-05T03:54:37.200Z,1005.8
2023-03-05T03:55:40.466Z,1005.7
2023-03-05T03:56:44.309Z,1005.7
2023-03-05T03:57:47.450Z,1005.7
2023-03-05T03:58:51.210Z,1005.7
2023-03-05T03:59:54.618Z,1005.7
2023-03-05T04:00:57.708Z,1005.7
2023-03-05T04:02:00.259Z,1005.7
2023-03-05T04:03:03.419Z,1005.6
2023-03-05T04:04:06.378Z,1005.6
2023-03-05T04:05:09.352Z,1005.6
2023-03-05T04:06:12.488Z,1005.6
2023-03-05T04:07:15.369Z,1005.6
2023-03-05T04:08:18.439Z,1005.6
2023-03-05T04:09:21.609Z,1005.5
2023-03-05T04:10:24.314Z,1005.6
2023-03-05T04:11:27.298Z,1005.5
2023-03-05T04:12:31.190Z,1005.5
2023-03-05T04:13:34.559Z,1005.5
2023-03-05T04:14:37.522Z,1005.5
2023-03-05T04:15:40.702Z,1005.5
2023-03-05T04:16:44.186Z,1005.4
2023-03-05T04:17:47.271Z,1005.5
2023-03-05T04:18:51.009Z,1005.5
2023-03-05T04:19:53.312Z,1005.5
2023-03-05T04:20:55.484Z,1005.5
2023-03-05T04:21:58.362Z,1005.4
2023-03-05T04:23:01.547Z,1005.4
2023-03-05T04:24:04.351Z,1005.4
2023-03-05T04:25:07.407Z,1005.4
2023-03-05T04:26:11.056Z,1005.5
2023-03-05T04:27:13.796Z,1005.4
2023-03-05T04:28:17.632Z,1005.4
2023-03-05T04:29:21.168Z,1005.4
2023-03-05T04:30:24.050Z,1005.4
2023-03-05T04:31:26.964Z,1005.4
2023-03-05T04:32:30.632Z,1005.4
2023-03-05T04:33:33.729Z,1005.4
2023-03-05T04:34:36.895Z,1005.3
2023-03-05T04:35:39.839Z,1005.3
2023-03-05T04:36:43.492Z,1005.3
2023-03-05T04:37:46.353Z,1005.3
2023-03-05T04:38:48.904Z,1005.3
2023-03-05T04:39:51.762Z,1005.3
2023-03-05T04:40:55.145Z,1005.2
2023-03-05T04:41:57.300Z,1005.3
2023-03-05T04:43:00.105Z,1005.3
2023-03-05T04:44:03.988Z,1005.3
2023-03-05T04:45:07.271Z,1005.2
2023-03-05T04:46:10.098Z,1005.2
2023-03-05T04:47:12.946Z,1005.2
2023-03-05T04:48:15.654Z,1005.2
2023-03-05T04:49:18.696Z,1005.2
2023-03-05T04:50:21.816Z,1005.2
2023-03-05T04:51:25.267Z,1005.2
2023-03-05T04:52:28.362Z,1005.2
2023-03-05T04:53:31.734Z,1005.2
2023-03-05T04:54:34.447Z,1005.2
2023-03-05T04:55:38.080Z,1005.2
2023-03-05T04:56:41.263Z,1005.2
2023-03-05T04:57:43.227Z,1005.1
2023-03-05T04:58:46.393Z,1005.2
2023-03-05T04:59:50.394Z,1005.1
2023-03-05T05:00:53.572Z,1005.1
2023-03-05T05:01:57.104Z,1005.1
2023-03-05T05:03:00.289Z,1005.1
2023-03-05T05:04:03.615Z,1005.1
2023-03-05T05:05:06.085Z,1005.1
2023-03-05T05:06:08.519Z,1005.1
2023-03-05T05:07:12.306Z,1005.1
2023-03-05T05:08:16.015Z,1005.1
2023-03-05T05:09:19.647Z,1005.1
2023-03-05T05:10:23.312Z,1005
2023-03-05T05:11:26.742Z,1005.1
2023-03-05T05:12:29.303Z,1005.1
2023-03-05T05:13:32.292Z,1005.1
2023-03-05T05:14:35.662Z,1005.1
2023-03-05T05:15:39.608Z,1005
2023-03-05T05:16:42.733Z,1005
2023-03-05T05:17:46.404Z,1005
2023-03-05T05:18:49.758Z,1005
2023-03-05T05:19:52.838Z,1005
2023-03-05T05:20:55.566Z,1005
2023-03-05T05:21:58.477Z,1005
2023-03-05T05:23:01.093Z,1005
2023-03-05T05:24:04.459Z,1005
2023-03-05T05:25:07.007Z,1005
2023-03-05T05:26:10.758Z,1005
2023-03-05T05:27:13.918Z,1005
2023-03-05T05:28:16.916Z,1005
2023-03-05T05:29:20.188Z,1005
2023-03-05T05:30:22.734Z,1005
2023-03-05T05:31:26.917Z,1005
2023-03-05T05:32:30.889Z,1005
2023-03-05T05:33:34.907Z,1005
2023-03-05T05:34:38.354Z,1005
2023-03-05T05:35:41.904Z,1005
2023-03-05T05:36:45.207Z,1005
2023-03-05T05:37:48.986Z,1005
2023-03-05T05:38:52.682Z,1005
2023-03-05T05:39:55.684Z,1005
2023-03-05T05:40:58.577Z,1005
2023-03-05T05:42:01.299Z,1005
2023-03-05T05:43:04.359Z,1005
2023-03-05T05:44:07.782Z,1005
2023-03-05T05:45:11.044Z,1005.1
2023-03-05T05:46:14.850Z,1005.1
2023-03-05T05:47:19.442Z,1005.1
2023-03-05T05:48:22.861Z,1005.1
2023-03-05T05:49:26.239Z,1005.1
2023-03-05T05:50:29.679Z,1005
2023-03-05T05:51:32.428Z,1005
2023-03-05T05:52:35.495Z,1005
2023-03-05T05:53:38.609Z,1005.1
2023-03-05T05:54:42.370Z,1005.1
2023-03-05T05:55:45.642Z,1005
2023-03-05T05:56:48.345Z,1005.1
2023-03-05T05:57:51.688Z,1005.1
2023-03-05T05:58:54.142Z,1005.1
2023-03-05T05:59:57.676Z,1005.1
2023-03-05T06:01:01.113Z,1005.1
2023-03-05T06:02:04.344Z,1005.1
2023-03-05T06:03:08.905Z,1005.1
2023-03-05T06:04:12.027Z,1005.1
2023-03-05T06:05:15.604Z,1005
2023-03-05T06:06:19.286Z,1005.1
2023-03-05T06:07:22.755Z,1005
2023-03-05T06:08:25.533Z,1005
2023-03-05T06:09:28.533Z,1005
2023-03-05T06:10:31.685Z,1005
2023-03-05T06:11:35.275Z,1005.1
2023-03-05T06:12:37.985Z,1005
2023-03-05T06:13:41.678Z,1005.1
2023-03-05T06:14:44.718Z,1005
2023-03-05T06:15:48.170Z,1005
2023-03-05T06:16:51.107Z,1005.1
2023-03-05T06:17:53.799Z,1005.1
2023-03-05T06:18:57.644Z,1005
2023-03-05T06:20:00.810Z,1005.1
2023-03-05T06:21:04.192Z,1005.1
2023-03-05T06:22:07.262Z,1005
2023-03-05T06:23:10.324Z,1005
2023-03-05T06:24:13.700Z,1005
2023-03-05T06:25:16.787Z,1005
2023-03-05T06:26:20.134Z,1005
2023-03-05T06:27:23.651Z,1004.9
2023-03-05T06:28:25.832Z,1005
2023-03-05T06:29:28.846Z,1005
2023-03-05T06:30:31.765Z,1005
2023-03-05T06:31:37.472Z,1005
2023-03-05T06:32:40.656Z,1005
2023-03-05T06:33:43.374Z,1005
2023-03-05T06:34:47.549Z,1005.1
2023-03-05T06:35:50.774Z,1005
2023-03-05T06:36:54.426Z,1005
2023-03-05T06:37:56.850Z,1005.1
2023-03-05T06:38:59.030Z,1005
2023-03-05T06:40:02.213Z,1005
2023-03-05T06:41:05.563Z,1005
2023-03-05T06:42:08.730Z,1005
2023-03-05T06:43:11.602Z,1005
2023-03-05T06:44:14.709Z,1005
2023-03-05T06:45:17.724Z,1005
2023-03-05T06:46:20.767Z,1005
2023-03-05T06:47:24.004Z,1005
2023-03-05T06:48:26.901Z,1005
2023-03-05T06:49:29.627Z,1004.9
2023-03-05T06:50:33.202Z,1004.9
2023-03-05T06:51:35.985Z,1004.9
2023-03-05T06:52:38.792Z,1004.9
2023-03-05T06:53:41.961Z,1004.9
2023-03-05T06:54:45.006Z,1004.9
2023-03-05T06:55:47.840Z,1004.9
2023-03-05T06:56:51.537Z,1004.9
2023-03-05T06:57:54.891Z,1004.9
2023-03-05T06:58:57.746Z,1004.9
2023-03-05T07:00:00.482Z,1004.9
2023-03-05T07:01:03.377Z,1004.9
2023-03-05T07:02:06.175Z,1004.9
2023-03-05T07:03:09.131Z,1004.9
2023-03-05T07:04:12.432Z,1004.9
2023-03-05T07:05:16.482Z,1004.9
2023-03-05T07:06:20.700Z,1004.9
2023-03-05T07:07:23.764Z,1004.8
2023-03-05T07:08:27.266Z,1004.9
2023-03-05T07:09:30.310Z,1004.8
2023-03-05T07:10:33.699Z,1004.9
2023-03-05T07:11:36.853Z,1004.9
2023-03-05T07:12:40.872Z,1004.9
2023-03-05T07:13:46.621Z,1004.9
2023-03-05T07:14:50.104Z,1004.9
2023-03-05T07:15:53.452Z,1004.9
2023-03-05T07:16:56.494Z,1004.9
2023-03-05T07:17:59.974Z,1004.9
2023-03-05T07:19:02.436Z,1004.9
2023-03-05T07:20:05.234Z,1004.9
2023-03-05T07:21:08.431Z,1004.9
2023-03-05T07:22:12.560Z,1004.9
2023-03-05T07:23:15.310Z,1004.9
2023-03-05T07:24:18.350Z,1004.9
2023-03-05T07:25:21.356Z,1004.9
2023-03-05T07:26:24.059Z,1004.9
2023-03-05T07:27:27.140Z,1004.9
2023-03-05T07:28:29.587Z,1004.9
2023-03-05T07:29:32.943Z,1004.9
2023-03-05T07:30:35.817Z,1004.9
2023-03-05T07:31:39.059Z,1004.9
2023-03-05T07:32:41.659Z,1004.9
2023-03-05T07:33:44.378Z,1004.9
2023-03-05T07:34:47.386Z,1004.9
2023-03-05T07:35:50.291Z,1004.9
2023-03-05T07:36:54.307Z,1004.8
2023-03-05T07:37:57.907Z,1004.8
2023-03-05T07:39:01.331Z,1004.8
2023-03-05T07:40:04.589Z,1004.9
2023-03-05T07:41:07.105Z,1004.9
2023-03-05T07:42:10.096Z,1004.9
2023-03-05T07:43:13.623Z,1004.9
2023-03-05T07:44:17.277Z,1004.8
2023-03-05T07:45:20.142Z,1004.9
2023-03-05T07:46:23.641Z,1004.9
2023-03-05T07:47:26.154Z,1004.9
2023-03-05T07:48:29.578Z,1004.8
2023-03-05T07:49:32.879Z,1004.8
2023-03-05T07:50:36.659Z,1004.8
2023-03-05T07:51:39.433Z,1004.8
2023-03-05T07:52:42.889Z,1004.8
2023-03-05T07:53:46.794Z,1004.8
2023-03-05T07:54:49.544Z,1004.9
2023-03-05T07:55:52.657Z,1004.8
2023-03-05T07:56:55.114Z,1004.9
2023-03-05T07:57:57.571Z,1004.8
2023-03-05T07:59:00.575Z,1004.8
2023-03-05T08:00:04.114Z,1004.8
2023-03-05T08:01:07.464Z,1004.9
2023-03-05T08:02:11.227Z,1004.7
2023-03-05T08:03:14.530Z,1004.8
2023-03-05T08:04:18.233Z,1004.8
2023-03-05T08:05:21.736Z,1004.7
2023-03-05T08:06:25.081Z,1004.7
2023-03-05T08:07:28.494Z,1004.7
2023-03-05T08:08:32.153Z,1004.7
2023-03-05T08:09:36.026Z,1004.7
2023-03-05T08:10:39.364Z,1004.7
2023-03-05T08:11:42.559Z,1004.6
2023-03-05T08:12:45.090Z,1004.8
2023-03-05T08:13:48.365Z,1004.8
2023-03-05T08:14:51.703Z,1004.8
2023-03-05T08:15:54.754Z,1004.7
2023-03-05T08:16:57.728Z,1004.7
2023-03-05T08:18:01.079Z,1004.7
2023-03-05T08:19:04.158Z,1004.8
2023-03-05T08:20:06.672Z,1004.8
2023-03-05T08:21:09.189Z,1004.7
2023-03-05T08:22:11.739Z,1004.7
2023-03-05T08:23:14.795Z,1004.7
2023-03-05T08:24:17.647Z,1004.7
2023-03-05T08:25:21.245Z,1004.7
2023-03-05T08:26:25.290Z,1004.7
2023-03-05T08:27:28.026Z,1004.7
2023-03-05T08:28:34.420Z,1004.7
2023-03-05T08:29:37.665Z,1004.7
2023-03-05T08:30:40.370Z,1004.6
2023-03-05T08:31:43.265Z,1004.7
2023-03-05T08:32:46.226Z,1004.6
2023-03-05T08:33:49.564Z,1004.6
2023-03-05T08:34:52.963Z,1004.7
2023-03-05T08:35:56.223Z,1004.7
2023-03-05T08:37:00.306Z,1004.6
2023-03-05T08:38:02.854Z,1004.6
2023-03-05T08:39:06.488Z,1004.6
2023-03-05T08:40:09.552Z,1004.6
2023-03-05T08:41:13.717Z,1004.5
2023-03-05T08:42:16.787Z,1004.6
2023-03-05T08:43:20.536Z,1004.6
2023-03-05T08:44:23.356Z,1004.6
2023-03-05T08:45:26.445Z,1004.6
2023-03-05T08:46:29.669Z,1004.6
2023-03-05T08:47:32.940Z,1004.6
2023-03-05T08:48:35.603Z,1004.6
2023-03-05T08:49:38.685Z,1004.6
2023-03-05T08:50:41.498Z,1004.5
2023-03-05T08:51:44.383Z,1004.5
2023-03-05T08:52:47.214Z,1004.6
2023-03-05T08:53:50.390Z,1004.5
2023-03-05T08:54:53.203Z,1004.5
2023-03-05T08:55:55.981Z,1004.5
2023-03-05T08:57:00.166Z,1004.5
2023-03-05T08:58:03.430Z,1004.5
2023-03-05T08:59:06.292Z,1004.6
2023-03-05T09:00:09.039Z,1004.5
2023-03-05T09:01:12.646Z,1004.5
2023-03-05T09:02:15.374Z,1004.5
2023-03-05T09:03:18.734Z,1004.4
2023-03-05T09:04:22.066Z,1004.5
2023-03-05T09:05:24.869Z,1004.4
2023-03-05T09:06:27.605Z,1004.4
2023-03-05T09:07:31.000Z,1004.3
2023-03-05T09:08:34.193Z,1004.4
2023-03-05T09:09:36.915Z,1004.4
2023-03-05T09:10:40.348Z,1004.4
2023-03-05T09:11:43.513Z,1004.3
2023-03-05T09:12:47.766Z,1004.4
2023-03-05T09:13:50.587Z,1004.4
2023-03-05T09:14:53.696Z,1004.2
2023-03-05T09:15:56.945Z,1004.3
2023-03-05T09:17:00.012Z,1004.3
2023-03-05T09:18:02.511Z,1004.2
2023-03-05T09:19:05.590Z,1004.3
2023-03-05T09:20:08.649Z,1004.2
2023-03-05T09:21:11.638Z,1004.3
2023-03-05T09:22:14.911Z,1004.2
2023-03-05T09:23:17.684Z,1004.2
2023-03-05T09:24:21.125Z,1004.3
2023-03-05T09:25:24.179Z,1004.1
2023-03-05T09:26:26.906Z,1004.3
2023-03-05T09:27:30.058Z,1004.2
2023-03-05T09:28:34.194Z,1004.2
2023-03-05T09:29:37.855Z,1004.2
2023-03-05T09:30:44.785Z,1004.2
2023-03-05T09:31:48.514Z,1004.2
2023-03-05T09:32:51.681Z,1004.2
2023-03-05T09:33:55.122Z,1004.2
2023-03-05T09:34:57.920Z,1004.2
2023-03-05T09:36:01.359Z,1004.3
2023-03-05T09:37:04.289Z,1004.3
2023-03-05T09:38:07.390Z,1004.2
2023-03-05T09:39:10.871Z,1004.2
2023-03-05T09:40:13.595Z,1004.2
2023-03-05T09:41:16.529Z,1004.2
2023-03-05T09:42:20.264Z,1004.2
2023-03-05T09:43:23.281Z,1004.1
2023-03-05T09:44:27.402Z,1004.1
2023-03-05T09:45:30.541Z,1004.2
2023-03-05T09:46:34.322Z,1004.2
2023-03-05T09:47:37.048Z,1004.2
2023-03-05T09:48:39.794Z,1004.1
2023-03-05T09:49:42.884Z,1004.2
2023-03-05T09:50:45.940Z,1004.1
2023-03-05T09:51:48.919Z,1004.2
2023-03-05T09:52:51.906Z,1004.1
2023-03-05T09:53:54.334Z,1004.1
2023-03-05T09:54:57.424Z,1004.2
2023-03-05T09:56:00.783Z,1004.2
2023-03-05T09:57:03.889Z,1004.2
2023-03-05T09:58:07.394Z,1004.2
2023-03-05T09:59:10.453Z,1004.2
2023-03-05T10:00:14.583Z,1004.1
2023-03-05T10:01:17.724Z,1004.1
2023-03-05T10:02:21.306Z,1004.1
2023-03-05T10:03:24.430Z,1004.1
2023-03-05T10:04:27.143Z,1004.1
2023-03-05T10:05:30.723Z,1004.1
2023-03-05T10:06:33.299Z,1004.1
2023-03-05T10:07:36.277Z,1004.1
2023-03-05T10:08:39.449Z,1004.1
2023-03-05T10:09:42.443Z,1004.1
2023-03-05T10:10:45.676Z,1004.1
2023-03-05T10:11:49.295Z,1004.1
2023-03-05T10:12:52.081Z,1004
2023-03-05T10:13:55.429Z,1004.1
2023-03-05T10:14:58.119Z,1004.1
2023-03-05T10:16:01.694Z,1004.1
2023-03-05T10:17:04.823Z,1004
2023-03-05T10:18:07.918Z,1004.1
2023-03-05T10:19:10.795Z,1004.1
2023-03-05T10:20:13.581Z,1004
2023-03-05T10:21:15.728Z,1004
2023-03-05T10:22:19.099Z,1004
2023-03-05T10:23:22.354Z,1004
2023-03-05T10:24:25.052Z,1004
2023-03-05T10:25:28.789Z,1004
2023-03-05T10:26:31.918Z,1004
2023-03-05T10:27:34.593Z,1004
2023-03-05T10:28:39.348Z,1004
2023-03-05T10:29:42.099Z,1004
2023-03-05T10:30:45.457Z,1004
2023-03-05T10:31:49.724Z,1004
2023-03-05T10:32:53.286Z,1004
2023-03-05T10:33:56.394Z,1004
2023-03-05T10:34:59.912Z,1004
2023-03-05T10:36:02.773Z,1004
2023-03-05T10:37:05.771Z,1004
2023-03-05T10:38:09.499Z,1004
2023-03-05T10:39:12.616Z,1004
2023-03-05T10:40:15.352Z,1004
2023-03-05T10:41:18.965Z,1004
2023-03-05T10:42:22.306Z,1003.9
2023-03-05T10:43:25.470Z,1004
2023-03-05T10:44:27.958Z,1003.9
2023-03-05T10:45:31.356Z,1003.9
2023-03-05T10:46:34.755Z,1003.9
2023-03-05T10:47:38.610Z,1003.9
2023-03-05T10:48:42.391Z,1003.9
2023-03-05T10:49:46.429Z,1003.9
2023-03-05T10:50:49.637Z,1003.9
2023-03-05T10:51:52.268Z,1003.9
2023-03-05T10:52:55.357Z,1003.9
2023-03-05T10:53:58.606Z,1003.9
2023-03-05T10:55:01.607Z,1003.9
2023-03-05T10:56:05.140Z,1003.9
2023-03-05T10:57:07.932Z,1003.9
2023-03-05T10:58:12.007Z,1003.9
2023-03-05T10:59:15.357Z,1003.9
2023-03-05T11:00:18.449Z,1003.9
2023-03-05T11:01:22.465Z,1003.9
2023-03-05T11:02:26.799Z,1003.9
2023-03-05T11:03:31.072Z,1003.9
2023-03-05T11:04:34.431Z,1003.9
2023-03-05T11:05:38.107Z,1003.9
2023-03-05T11:06:41.846Z,1003.9
2023-03-05T11:07:44.906Z,1003.8
2023-03-05T11:08:48.031Z,1003.8
2023-03-05T11:09:50.960Z,1003.9
2023-03-05T11:10:53.739Z,1003.8
2023-03-05T11:11:57.101Z,1003.8
2023-03-05T11:12:59.336Z,1003.8
2023-03-05T11:14:03.150Z,1003.8
2023-03-05T11:15:06.262Z,1003.8
2023-03-05T11:16:09.389Z,1003.8
2023-03-05T11:17:12.853Z,1003.8
2023-03-05T11:18:16.331Z,1003.8
2023-03-05T11:19:20.262Z,1003.8
2023-03-05T11:20:23.769Z,1003.8
2023-03-05T11:21:27.599Z,1003.8
2023-03-05T11:22:31.062Z,1003.7
2023-03-05T11:23:34.403Z,1003.7
2023-03-05T11:24:37.415Z,1003.7
2023-03-05T11:25:40.227Z,1003.7
2023-03-05T11:26:42.827Z,1003.7
2023-03-05T11:27:45.345Z,1003.7
2023-03-05T11:28:52.704Z,1003.7
2023-03-05T11:29:55.742Z,1003.7
2023-03-05T11:30:58.554Z,1003.7
2023-03-05T11:32:01.883Z,1003.7
2023-03-05T11:33:05.369Z,1003.7
2023-03-05T11:34:11.939Z,1003.7
2023-03-05T11:35:15.759Z,1003.7
2023-03-05T11:36:18.553Z,1003.7
2023-03-05T11:37:21.543Z,1003.7
2023-03-05T11:38:25.315Z,1003.7
2023-03-05T11:39:28.208Z,1003.7
2023-03-05T11:40:31.591Z,1003.7
2023-03-05T11:41:34.406Z,1003.7
2023-03-05T11:42:37.538Z,1003.6
2023-03-05T11:43:41.249Z,1003.7
2023-03-05T11:44:44.606Z,1003.6
2023-03-05T11:45:48.173Z,1003.6
2023-03-05T11:46:51.740Z,1003.7
2023-03-05T11:47:54.847Z,1003.6
2023-03-05T11:48:58.361Z,1003.6
2023-03-05T11:50:01.770Z,1003.6
2023-03-05T11:51:05.992Z,1003.5
2023-03-05T11:52:09.382Z,1003.6
2023-03-05T11:53:12.557Z,1003.6
2023-03-05T11:54:15.313Z,1003.6
2023-03-05T11:55:18.526Z,1003.6
2023-03-05T11:56:21.556Z,1003.6
2023-03-05T11:57:24.098Z,1003.5
2023-03-05T11:58:27.129Z,1003.5
2023-03-05T11:59:30.834Z,1003.5
2023-03-05T12:00:33.909Z,1003.5
2023-03-05T12:01:37.353Z,1003.5
2023-03-05T12:02:40.171Z,1003.5
2023-03-05T12:03:43.579Z,1003.5
2023-03-05T12:04:47.588Z,1003.5
2023-03-05T12:05:50.449Z,1003.5
2023-03-05T12:06:54.296Z,1003.5
2023-03-05T12:07:57.321Z,1003.5
2023-03-05T12:09:00.634Z,1003.5
2023-03-05T12:10:04.084Z,1003.4
2023-03-05T12:11:07.032Z,1003.5
2023-03-05T12:12:10.042Z,1003.5
2023-03-05T12:13:13.141Z,1003.4
2023-03-05T12:14:16.595Z,1003.4
2023-03-05T12:15:19.848Z,1003.4
2023-03-05T12:16:22.977Z,1003.4
2023-03-05T12:17:26.649Z,1003.4
2023-03-05T12:18:30.105Z,1003.4
2023-03-05T12:19:33.808Z,1003.4
2023-03-05T12:20:37.712Z,1003.3
2023-03-05T12:21:41.803Z,1003.3
2023-03-05T12:22:46.513Z,1003.3
2023-03-05T12:23:49.954Z,1003.3
2023-03-05T12:24:52.594Z,1003.3
2023-03-05T12:25:56.340Z,1003.3
2023-03-05T12:26:58.855Z,1003.3
2023-03-05T12:28:01.863Z,1003.2
2023-03-05T12:29:05.579Z,1003.2
2023-03-05T12:30:08.723Z,1003.2
2023-03-05T12:31:11.822Z,1003.2
2023-03-05T12:32:15.356Z,1003.2
2023-03-05T12:33:18.218Z,1003.2
2023-03-05T12:34:21.940Z,1003.1
2023-03-05T12:35:25.239Z,1003.1
2023-03-05T12:36:27.885Z,1003.1
2023-03-05T12:37:31.958Z,1003.1
2023-03-05T12:38:35.791Z,1003.1
2023-03-05T12:39:38.886Z,1003
2023-03-05T12:40:43.514Z,1003
2023-03-05T12:41:47.318Z,1002.9
2023-03-05T12:42:50.520Z,1002.9
2023-03-05T12:43:53.333Z,1002.9
2023-03-05T12:44:56.754Z,1002.9
2023-03-05T12:45:59.806Z,1002.9
2023-03-05T12:47:02.679Z,1002.9
2023-03-05T12:48:05.713Z,1002.9
2023-03-05T12:49:09.165Z,1002.9
2023-03-05T12:50:12.443Z,1002.9
2023-03-05T12:51:15.981Z,1002.8
2023-03-05T12:52:18.900Z,1002.8
2023-03-05T12:53:22.464Z,1002.8
2023-03-05T12:54:26.578Z,1002.8
2023-03-05T12:55:29.666Z,1002.8
2023-03-05T12:56:33.326Z,1002.8
2023-03-05T12:57:36.795Z,1002.8
2023-03-05T12:58:39.881Z,1002.8
2023-03-05T12:59:43.164Z,1002.8
2023-03-05T13:00:46.962Z,1002.8
2023-03-05T13:01:50.544Z,1002.8
2023-03-05T13:02:54.166Z,1002.7
2023-03-05T13:03:57.418Z,1002.8
2023-03-05T13:05:00.838Z,1002.8
2023-03-05T13:06:04.370Z,1002.8
2023-03-05T13:07:08.002Z,1002.8
2023-03-05T13:08:12.903Z,1002.8
2023-03-05T13:09:19.111Z,1002.8
2023-03-05T13:10:23.426Z,1002.7
2023-03-05T13:11:27.191Z,1002.7
2023-03-05T13:12:30.211Z,1002.7
2023-03-05T13:13:32.924Z,1002.6
2023-03-05T13:14:36.009Z,1002.6
2023-03-05T13:15:39.137Z,1002.6
2023-03-05T13:16:42.372Z,1002.6
2023-03-05T13:17:46.064Z,1002.6
2023-03-05T13:18:49.021Z,1002.6
2023-03-05T13:19:52.040Z,1002.6
2023-03-05T13:20:55.161Z,1002.6